sensor_id;sensor_type;location;lat;lon;timestamp;pressure;altitude;pressure_sealevel;temperature;humidity
13041;BME280;6587;42.728;23.288;2024-02-14T00:01:20;95108.53;;;4.79;85.13
13041;BME280;6587;42.728;23.288;2024-02-14T00:03:47;95102.19;;;4.83;84.78
13041;BME280;6587;42.728;23.288;2024-02-14T00:06:14;95104.00;;;4.79;85.07
13041;BME280;6587;42.728;23.288;2024-02-14T00:08:41;95105.88;;;4.79;85.17
13041;BME280;6587;42.728;23.288;2024-02-14T00:11:09;95109.75;;;4.85;84.67
13041;BME280;6587;42.728;23.288;2024-02-14T00:13:36;95116.34;;;4.95;84.96
13041;BME280;6587;42.728;23.288;2024-02-14T00:16:03;95121.25;;;4.96;84.21
13041;BME280;6587;42.728;23.288;2024-02-14T00:18:32;95128.00;;;4.94;84.25
13041;BME280;6587;42.728;23.288;2024-02-14T00:20:58;95126.75;;;4.88;84.21
13041;BME280;6587;42.728;23.288;2024-02-14T00:23:26;95117.25;;;4.83;84.15
13041;BME280;6587;42.728;23.288;2024-02-14T00:25:52;95119.59;;;4.88;83.98
13041;BME280;6587;42.728;23.288;2024-02-14T00:28:21;95127.88;;;4.87;84.94
13041;BME280;6587;42.728;23.288;2024-02-14T00:30:49;95116.97;;;4.88;84.03
13041;BME280;6587;42.728;23.288;2024-02-14T00:33:16;95126.03;;;4.91;84.59
13041;BME280;6587;42.728;23.288;2024-02-14T00:35:44;95121.91;;;4.90;84.31
13041;BME280;6587;42.728;23.288;2024-02-14T00:38:11;95125.06;;;4.99;84.61
13041;BME280;6587;42.728;23.288;2024-02-14T00:40:38;95130.97;;;4.92;84.61
13041;BME280;6587;42.728;23.288;2024-02-14T00:43:04;95124.28;;;4.98;84.48
13041;BME280;6587;42.728;23.288;2024-02-14T00:45:33;95129.72;;;4.86;84.29
13041;BME280;6587;42.728;23.288;2024-02-14T00:48:01;95130.09;;;4.84;84.16
13041;BME280;6587;42.728;23.288;2024-02-14T00:50:29;95131.66;;;4.89;84.38
13041;BME280;6587;42.728;23.288;2024-02-14T00:52:56;95121.13;;;4.89;84.17
13041;BME280;6587;42.728;23.288;2024-02-14T00:55:22;95129.31;;;4.84;84.83
13041;BME280;6587;42.728;23.288;2024-02-14T00:57:49;95135.84;;;4.90;83.84
13041;BME280;6587;42.728;23.288;2024-02-14T01:00:17;95129.81;;;4.90;83.92
13041;BME280;6587;42.728;23.288;2024-02-14T01:02:45;95129.03;;;4.89;83.88
13041;BME280;6587;42.728;23.288;2024-02-14T01:05:12;95131.13;;;4.99;83.80
13041;BME280;6587;42.728;23.288;2024-02-14T01:07:39;95127.00;;;5.02;83.24
13041;BME280;6587;42.728;23.288;2024-02-14T01:10:06;95128.47;;;4.99;83.85
13041;BME280;6587;42.728;23.288;2024-02-14T01:12:33;95133.50;;;4.85;84.54
13041;BME280;6587;42.728;23.288;2024-02-14T01:15:00;95134.94;;;4.82;84.44
13041;BME280;6587;42.728;23.288;2024-02-14T01:17:27;95128.63;;;4.87;84.35
13041;BME280;6587;42.728;23.288;2024-02-14T01:19:55;95125.00;;;4.95;83.96
13041;BME280;6587;42.728;23.288;2024-02-14T01:22:23;95132.53;;;4.93;83.66
13041;BME280;6587;42.728;23.288;2024-02-14T01:24:50;95127.25;;;4.93;83.66
13041;BME280;6587;42.728;23.288;2024-02-14T01:27:17;95128.81;;;4.98;83.35
13041;BME280;6587;42.728;23.288;2024-02-14T01:29:43;95132.38;;;4.86;83.45
13041;BME280;6587;42.728;23.288;2024-02-14T01:32:10;95137.72;;;4.90;83.50
13041;BME280;6587;42.728;23.288;2024-02-14T01:34:37;95137.72;;;4.90;83.86
13041;BME280;6587;42.728;23.288;2024-02-14T01:37:05;95129.38;;;4.88;83.63
13041;BME280;6587;42.728;23.288;2024-02-14T01:39:32;95136.31;;;4.96;82.78
13041;BME280;6587;42.728;23.288;2024-02-14T01:41:59;95133.97;;;4.91;82.86
13041;BME280;6587;42.728;23.288;2024-02-14T01:44:26;95135.63;;;4.99;83.25
13041;BME280;6587;42.728;23.288;2024-02-14T01:46:53;95126.75;;;4.88;82.73
13041;BME280;6587;42.728;23.288;2024-02-14T01:49:20;95128.81;;;4.98;83.01
13041;BME280;6587;42.728;23.288;2024-02-14T01:51:47;95122.66;;;4.90;82.61
13041;BME280;6587;42.728;23.288;2024-02-14T01:54:15;95122.53;;;4.83;82.58
13041;BME280;6587;42.728;23.288;2024-02-14T01:56:43;95125.59;;;4.85;83.20
13041;BME280;6587;42.728;23.288;2024-02-14T01:59:10;95121.41;;;4.84;82.64
13041;BME280;6587;42.728;23.288;2024-02-14T02:01:37;95122.53;;;4.83;83.24
13041;BME280;6587;42.728;23.288;2024-02-14T02:04:04;95123.16;;;4.76;83.17
13041;BME280;6587;42.728;23.288;2024-02-14T02:06:32;95125.44;;;4.78;82.76
13041;BME280;6587;42.728;23.288;2024-02-14T02:08:59;95128.22;;;4.85;83.05
13041;BME280;6587;42.728;23.288;2024-02-14T02:11:28;95128.63;;;4.87;83.07
13041;BME280;6587;42.728;23.288;2024-02-14T02:13:55;95129.03;;;4.89;82.67
13041;BME280;6587;42.728;23.288;2024-02-14T02:16:22;95132.28;;;4.82;82.75
13041;BME280;6587;42.728;23.288;2024-02-14T02:18:49;95139.59;;;4.89;82.21
13041;BME280;6587;42.728;23.288;2024-02-14T02:21:16;95140.72;;;4.88;81.97
13041;BME280;6587;42.728;23.288;2024-02-14T02:23:47;95135.72;;;4.83;82.33
13041;BME280;6587;42.728;23.288;2024-02-14T02:26:14;95139.47;;;4.82;81.81
13041;BME280;6587;42.728;23.288;2024-02-14T02:28:41;95143.06;;;4.74;82.76
13041;BME280;6587;42.728;23.288;2024-02-14T02:31:08;95138.34;;;4.83;82.63
13041;BME280;6587;42.728;23.288;2024-02-14T02:33:35;95145.84;;;4.81;82.04
13041;BME280;6587;42.728;23.288;2024-02-14T02:36:03;95138.88;;;4.73;81.98
13041;BME280;6587;42.728;23.288;2024-02-14T02:38:31;95146.44;;;4.74;82.18
13041;BME280;6587;42.728;23.288;2024-02-14T02:40:59;95151.34;;;4.72;82.58
13041;BME280;6587;42.728;23.288;2024-02-14T02:43:27;95155.41;;;4.70;83.03
13041;BME280;6587;42.728;23.288;2024-02-14T02:45:54;95152.38;;;4.68;82.74
13041;BME280;6587;42.728;23.288;2024-02-14T02:48:20;95158.47;;;4.72;82.97
13041;BME280;6587;42.728;23.288;2024-02-14T02:50:48;95159.16;;;4.69;82.85
13041;BME280;6587;42.728;23.288;2024-02-14T02:53:16;95161.53;;;4.74;82.27
13041;BME280;6587;42.728;23.288;2024-02-14T02:55:43;95160.94;;;4.84;82.73
13041;BME280;6587;42.728;23.288;2024-02-14T02:58:11;95172.41;;;4.72;82.24
13041;BME280;6587;42.728;23.288;2024-02-14T03:00:39;95171.31;;;4.73;81.83
13041;BME280;6587;42.728;23.288;2024-02-14T03:03:07;95175.25;;;4.83;82.37
13041;BME280;6587;42.728;23.288;2024-02-14T03:05:34;95185.94;;;4.71;82.79
13041;BME280;6587;42.728;23.288;2024-02-14T03:08:01;95182.75;;;4.81;81.84
13041;BME280;6587;42.728;23.288;2024-02-14T03:10:28;95183.09;;;4.79;82.13
13041;BME280;6587;42.728;23.288;2024-02-14T03:12:55;95181.03;;;4.69;81.86
13041;BME280;6587;42.728;23.288;2024-02-14T03:15:23;95176.44;;;4.66;81.92
13041;BME280;6587;42.728;23.288;2024-02-14T03:17:51;95188.59;;;4.71;82.58
13041;BME280;6587;42.728;23.288;2024-02-14T03:20:18;95189.69;;;4.70;82.18
13041;BME280;6587;42.728;23.288;2024-02-14T03:22:45;95193.00;;;4.67;82.21
13041;BME280;6587;42.728;23.288;2024-02-14T03:25:13;95199.13;;;4.71;81.38
13041;BME280;6587;42.728;23.288;2024-02-14T03:27:40;95194.75;;;4.78;80.75
13041;BME280;6587;42.728;23.288;2024-02-14T03:30:08;95207.44;;;4.73;80.91
13041;BME280;6587;42.728;23.288;2024-02-14T03:32:36;95203.72;;;4.74;80.73
13041;BME280;6587;42.728;23.288;2024-02-14T03:35:03;95215.59;;;4.83;80.61
13041;BME280;6587;42.728;23.288;2024-02-14T03:37:31;95214.25;;;4.74;80.39
13041;BME280;6587;42.728;23.288;2024-02-14T03:39:58;95218.69;;;4.70;81.26
13041;BME280;6587;42.728;23.288;2024-02-14T03:42:25;95215.66;;;4.68;81.09
13041;BME280;6587;42.728;23.288;2024-02-14T03:44:52;95221.47;;;4.77;80.95
13041;BME280;6587;42.728;23.288;2024-02-14T03:47:25;95227.00;;;4.72;81.03
13041;BME280;6587;42.728;23.288;2024-02-14T03:49:53;95229.38;;;4.77;81.28
13041;BME280;6587;42.728;23.288;2024-02-14T03:52:20;95234.94;;;4.72;80.77
13041;BME280;6587;42.728;23.288;2024-02-14T03:54:48;95234.22;;;4.75;80.61
13041;BME280;6587;42.728;23.288;2024-02-14T03:57:15;95226.31;;;4.75;80.22
13041;BME280;6587;42.728;23.288;2024-02-14T03:59:43;95223.75;;;4.59;80.29
13041;BME280;6587;42.728;23.288;2024-02-14T04:02:10;95232.63;;;4.70;81.18
13041;BME280;6587;42.728;23.288;2024-02-14T04:04:37;95227.63;;;4.65;80.71
13041;BME280;6587;42.728;23.288;2024-02-14T04:07:06;95233.31;;;4.67;81.00
13041;BME280;6587;42.728;23.288;2024-02-14T04:09:34;95233.16;;;4.60;80.07
13041;BME280;6587;42.728;23.288;2024-02-14T04:12:01;95238.78;;;4.59;80.75
13041;BME280;6587;42.728;23.288;2024-02-14T04:14:27;95240.31;;;4.60;80.78
13041;BME280;6587;42.728;23.288;2024-02-14T04:16:55;95240.94;;;4.53;81.27
13041;BME280;6587;42.728;23.288;2024-02-14T04:19:21;95242.53;;;4.58;80.48
13041;BME280;6587;42.728;23.288;2024-02-14T04:21:48;95242.44;;;4.54;80.73
13041;BME280;6587;42.728;23.288;2024-02-14T04:24:17;95249.19;;;4.52;80.71
13041;BME280;6587;42.728;23.288;2024-02-14T04:26:43;95248.63;;;4.43;81.03
13041;BME280;6587;42.728;23.288;2024-02-14T04:29:10;95244.16;;;4.47;81.91
13041;BME280;6587;42.728;23.288;2024-02-14T04:31:37;95249.66;;;4.38;81.63
13041;BME280;6587;42.728;23.288;2024-02-14T04:34:04;95248.28;;;4.44;81.48
13041;BME280;6587;42.728;23.288;2024-02-14T04:36:33;95255.28;;;4.56;82.21
13041;BME280;6587;42.728;23.288;2024-02-14T04:39:01;95262.19;;;4.45;82.33
13041;BME280;6587;42.728;23.288;2024-02-14T04:41:29;95253.38;;;4.37;82.64
13041;BME280;6587;42.728;23.288;2024-02-14T04:43:56;95259.41;;;4.38;82.59
13041;BME280;6587;42.728;23.288;2024-02-14T04:46:23;95260.25;;;4.42;81.89
13041;BME280;6587;42.728;23.288;2024-02-14T04:48:50;95269.75;;;4.46;81.49
13041;BME280;6587;42.728;23.288;2024-02-14T04:51:16;95274.19;;;4.42;81.55
13041;BME280;6587;42.728;23.288;2024-02-14T04:53:43;95276.06;;;4.42;82.03
13041;BME280;6587;42.728;23.288;2024-02-14T04:56:10;95272.38;;;4.46;81.56
13041;BME280;6587;42.728;23.288;2024-02-14T04:58:38;95278.00;;;4.45;81.79
13041;BME280;6587;42.728;23.288;2024-02-14T05:01:05;95281.50;;;4.49;81.70
13041;BME280;6587;42.728;23.288;2024-02-14T05:03:32;95286.69;;;4.45;82.40
13041;BME280;6587;42.728;23.288;2024-02-14T05:05:59;95288.53;;;4.45;81.32
13041;BME280;6587;42.728;23.288;2024-02-14T05:08:28;95290.94;;;4.50;81.05
13041;BME280;6587;42.728;23.288;2024-02-14T05:10:54;95286.78;;;4.49;81.66
13041;BME280;6587;42.728;23.288;2024-02-14T05:13:21;95290.25;;;4.53;82.01
13041;BME280;6587;42.728;23.288;2024-02-14T05:15:50;95297.41;;;4.52;81.02
13041;BME280;6587;42.728;23.288;2024-02-14T05:18:17;95296.44;;;4.45;81.68
13041;BME280;6587;42.728;23.288;2024-02-14T05:20:44;95300.19;;;4.44;81.61
13041;BME280;6587;42.728;23.288;2024-02-14T05:23:11;95306.59;;;4.43;81.91
13041;BME280;6587;42.728;23.288;2024-02-14T05:25:38;95312.25;;;4.45;82.15
13041;BME280;6587;42.728;23.288;2024-02-14T05:28:05;95312.25;;;4.45;81.62
13041;BME280;6587;42.728;23.288;2024-02-14T05:30:32;95321.28;;;4.44;81.09
13041;BME280;6587;42.728;23.288;2024-02-14T05:33:03;95327.81;;;4.50;81.55
13041;BME280;6587;42.728;23.288;2024-02-14T05:35:30;95323.75;;;4.52;80.65
13041;BME280;6587;42.728;23.288;2024-02-14T05:37:57;95321.63;;;4.42;81.23
13041;BME280;6587;42.728;23.288;2024-02-14T05:40:24;95329.53;;;4.42;81.20
13041;BME280;6587;42.728;23.288;2024-02-14T05:42:51;95332.59;;;4.44;81.52
13041;BME280;6587;42.728;23.288;2024-02-14T05:45:18;95341.69;;;4.47;81.08
13041;BME280;6587;42.728;23.288;2024-02-14T05:47:44;95341.53;;;4.40;81.22
13041;BME280;6587;42.728;23.288;2024-02-14T05:50:13;95350.63;;;4.42;81.49
13041;BME280;6587;42.728;23.288;2024-02-14T05:52:40;95352.75;;;4.37;80.53
13041;BME280;6587;42.728;23.288;2024-02-14T05:55:07;95353.25;;;4.27;81.09
13041;BME280;6587;42.728;23.288;2024-02-14T05:57:34;95349.44;;;4.24;80.96
13041;BME280;6587;42.728;23.288;2024-02-14T06:00:01;95354.88;;;4.31;81.23
13041;BME280;6587;42.728;23.288;2024-02-14T06:02:37;95362.78;;;4.47;80.74
13041;BME280;6587;42.728;23.288;2024-02-14T06:05:06;95369.91;;;4.46;80.38
13041;BME280;6587;42.728;23.288;2024-02-14T06:07:36;95367.34;;;4.34;79.81
13041;BME280;6587;42.728;23.288;2024-02-14T06:10:03;95368.47;;;4.33;79.44
13041;BME280;6587;42.728;23.288;2024-02-14T06:12:32;95376.13;;;4.38;80.24
13041;BME280;6587;42.728;23.288;2024-02-14T06:14:59;95377.31;;;4.41;80.21
13041;BME280;6587;42.728;23.288;2024-02-14T06:17:25;95379.34;;;4.32;79.35
13041;BME280;6587;42.728;23.288;2024-02-14T06:19:52;95384.03;;;4.38;79.27
13041;BME280;6587;42.728;23.288;2024-02-14T06:22:19;95386.34;;;4.40;78.59
13041;BME280;6587;42.728;23.288;2024-02-14T06:24:48;95388.28;;;4.43;78.23
13041;BME280;6587;42.728;23.288;2024-02-14T06:27:15;95388.09;;;4.36;78.63
13041;BME280;6587;42.728;23.288;2024-02-14T06:29:42;95393.38;;;4.36;78.96
13041;BME280;6587;42.728;23.288;2024-02-14T06:32:09;95396.44;;;4.38;79.00
13041;BME280;6587;42.728;23.288;2024-02-14T06:34:35;95393.28;;;4.48;78.08
13041;BME280;6587;42.728;23.288;2024-02-14T06:37:02;95397.22;;;4.54;77.99
13041;BME280;6587;42.728;23.288;2024-02-14T06:39:29;95407.13;;;4.60;77.05
13041;BME280;6587;42.728;23.288;2024-02-14T06:41:58;95411.72;;;4.48;78.06
13041;BME280;6587;42.728;23.288;2024-02-14T06:44:25;95409.53;;;4.50;77.04
13041;BME280;6587;42.728;23.288;2024-02-14T06:46:51;95418.56;;;4.49;77.40
13041;BME280;6587;42.728;23.288;2024-02-14T06:49:18;95417.09;;;4.51;76.46
13041;BME280;6587;42.728;23.288;2024-02-14T06:51:45;95414.06;;;4.49;76.44
13041;BME280;6587;42.728;23.288;2024-02-14T06:54:12;95413.63;;;4.47;76.57
13041;BME280;6587;42.728;23.288;2024-02-14T06:56:39;95425.25;;;4.62;76.40
13041;BME280;6587;42.728;23.288;2024-02-14T06:59:07;95421.44;;;4.44;75.95
13041;BME280;6587;42.728;23.288;2024-02-14T07:01:33;95418.56;;;4.49;76.55
13041;BME280;6587;42.728;23.288;2024-02-14T07:04:00;95428.06;;;4.53;76.12
13041;BME280;6587;42.728;23.288;2024-02-14T07:06:28;95434.53;;;4.56;76.05
13041;BME280;6587;42.728;23.288;2024-02-14T07:08:55;95436.06;;;4.57;76.25
13041;BME280;6587;42.728;23.288;2024-02-14T07:11:22;95446.69;;;4.60;75.24
13041;BME280;6587;42.728;23.288;2024-02-14T07:13:49;95450.19;;;4.49;75.05
13041;BME280;6587;42.728;23.288;2024-02-14T07:16:17;95449.31;;;4.45;76.03
13041;BME280;6587;42.728;23.288;2024-02-14T07:18:44;95459.72;;;4.69;75.66
13041;BME280;6587;42.728;23.288;2024-02-14T07:21:11;95464.31;;;4.72;74.51
13041;BME280;6587;42.728;23.288;2024-02-14T07:23:38;95459.22;;;4.79;74.53
13041;BME280;6587;42.728;23.288;2024-02-14T07:26:05;95460.91;;;4.71;74.25
13041;BME280;6587;42.728;23.288;2024-02-14T07:28:31;95463.28;;;4.61;73.87
13041;BME280;6587;42.728;23.288;2024-02-14T07:30:58;95469.22;;;4.58;74.13
13041;BME280;6587;42.728;23.288;2024-02-14T07:33:26;95471.38;;;4.68;73.78
13041;BME280;6587;42.728;23.288;2024-02-14T07:35:53;95475.19;;;4.55;74.73
13041;BME280;6587;42.728;23.288;2024-02-14T07:38:20;95472.63;;;4.43;73.92
13041;BME280;6587;42.728;23.288;2024-02-14T07:40:48;95481.44;;;4.35;75.30
13041;BME280;6587;42.728;23.288;2024-02-14T07:43:15;95482.03;;;4.44;74.87
13041;BME280;6587;42.728;23.288;2024-02-14T07:45:42;95477.88;;;4.43;74.64
13041;BME280;6587;42.728;23.288;2024-02-14T07:48:08;95473.28;;;4.40;75.09
13041;BME280;6587;42.728;23.288;2024-02-14T07:50:37;95468.13;;;4.59;75.48
13041;BME280;6587;42.728;23.288;2024-02-14T07:53:04;95481.50;;;4.66;74.64
13041;BME280;6587;42.728;23.288;2024-02-14T07:55:31;95479.69;;;4.54;74.51
13041;BME280;6587;42.728;23.288;2024-02-14T07:57:58;95468.38;;;4.38;73.98
13041;BME280;6587;42.728;23.288;2024-02-14T08:00:26;95471.34;;;4.37;74.42
13041;BME280;6587;42.728;23.288;2024-02-14T08:02:53;95490.72;;;4.44;74.70
13041;BME280;6587;42.728;23.288;2024-02-14T08:05:19;95481.59;;;4.42;75.39
13041;BME280;6587;42.728;23.288;2024-02-14T08:07:47;95488.66;;;4.38;75.55
13041;BME280;6587;42.728;23.288;2024-02-14T08:10:14;95487.56;;;4.39;74.99
13041;BME280;6587;42.728;23.288;2024-02-14T08:12:41;95488.84;;;4.45;74.53
13041;BME280;6587;42.728;23.288;2024-02-14T08:15:09;95479.84;;;4.46;73.82
13041;BME280;6587;42.728;23.288;2024-02-14T08:17:36;95489.81;;;4.52;74.66
13041;BME280;6587;42.728;23.288;2024-02-14T08:20:04;95489.19;;;4.43;73.83
13041;BME280;6587;42.728;23.288;2024-02-14T08:22:31;95484.94;;;4.54;73.80
13041;BME280;6587;42.728;23.288;2024-02-14T08:24:59;95496.84;;;4.48;74.21
13041;BME280;6587;42.728;23.288;2024-02-14T08:27:26;95491.56;;;4.48;74.78
13041;BME280;6587;42.728;23.288;2024-02-14T08:29:53;95498.97;;;4.43;74.30
13041;BME280;6587;42.728;23.288;2024-02-14T08:32:20;95507.34;;;4.33;74.59
13041;BME280;6587;42.728;23.288;2024-02-14T08:34:47;95507.22;;;4.41;74.32
13041;BME280;6587;42.728;23.288;2024-02-14T08:37:15;95512.25;;;4.62;73.41
13041;BME280;6587;42.728;23.288;2024-02-14T08:39:42;95516.19;;;4.40;72.91
13041;BME280;6587;42.728;23.288;2024-02-14T08:42:10;95518.19;;;4.16;74.20
13041;BME280;6587;42.728;23.288;2024-02-14T08:44:37;95504.34;;;4.19;73.57
13041;BME280;6587;42.728;23.288;2024-02-14T08:47:04;95519.84;;;4.36;73.40
13041;BME280;6587;42.728;23.288;2024-02-14T08:49:30;95526.38;;;4.26;73.50
13041;BME280;6587;42.728;23.288;2024-02-14T08:51:57;95517.66;;;4.38;73.78
13041;BME280;6587;42.728;23.288;2024-02-14T08:54:24;95515.94;;;4.30;73.35
13041;BME280;6587;42.728;23.288;2024-02-14T08:56:53;95544.28;;;4.21;72.98
13041;BME280;6587;42.728;23.288;2024-02-14T08:59:25;95537.47;;;4.20;73.88
13041;BME280;6587;42.728;23.288;2024-02-14T09:01:52;95525.78;;;4.33;73.73
13041;BME280;6587;42.728;23.288;2024-02-14T09:04:18;95531.84;;;4.33;73.76
13041;BME280;6587;42.728;23.288;2024-02-14T09:06:45;95530.09;;;4.25;73.66
13041;BME280;6587;42.728;23.288;2024-02-14T09:09:12;95533.94;;;4.28;72.90
13041;BME280;6587;42.728;23.288;2024-02-14T09:11:41;95537.13;;;4.33;73.34
13041;BME280;6587;42.728;23.288;2024-02-14T09:14:07;95545.97;;;4.41;72.77
13041;BME280;6587;42.728;23.288;2024-02-14T09:16:37;95539.84;;;4.37;73.46
13041;BME280;6587;42.728;23.288;2024-02-14T09:19:04;95529.94;;;4.34;73.13
13041;BME280;6587;42.728;23.288;2024-02-14T09:21:33;95538.69;;;4.50;72.41
13041;BME280;6587;42.728;23.288;2024-02-14T09:24:01;95544.00;;;4.38;73.14
13041;BME280;6587;42.728;23.288;2024-02-14T09:26:28;95544.50;;;4.55;72.94
13041;BME280;6587;42.728;23.288;2024-02-14T09:28:55;95540.22;;;4.51;73.08
13041;BME280;6587;42.728;23.288;2024-02-14T09:31:22;95554.88;;;4.64;72.34
13041;BME280;6587;42.728;23.288;2024-02-14T09:33:50;95557.69;;;4.43;72.09
13041;BME280;6587;42.728;23.288;2024-02-14T09:36:18;95550.44;;;4.52;72.10
13041;BME280;6587;42.728;23.288;2024-02-14T09:38:46;95551.50;;;4.63;71.77
13041;BME280;6587;42.728;23.288;2024-02-14T09:41:15;95554.84;;;4.48;72.03
13041;BME280;6587;42.728;23.288;2024-02-14T09:43:48;95559.31;;;4.48;72.08
13041;BME280;6587;42.728;23.288;2024-02-14T09:46:15;95552.44;;;4.43;71.22
13041;BME280;6587;42.728;23.288;2024-02-14T09:48:43;95541.88;;;4.43;71.67
13041;BME280;6587;42.728;23.288;2024-02-14T09:51:12;95552.97;;;4.49;72.02
13041;BME280;6587;42.728;23.288;2024-02-14T09:53:39;95543.38;;;4.56;71.57
13041;BME280;6587;42.728;23.288;2024-02-14T09:56:09;95544.50;;;4.55;71.76
13041;BME280;6587;42.728;23.288;2024-02-14T09:58:37;95546.53;;;4.62;71.09
13041;BME280;6587;42.728;23.288;2024-02-14T10:01:04;95548.00;;;4.75;71.18
13041;BME280;6587;42.728;23.288;2024-02-14T10:03:32;95542.84;;;4.78;70.97
13041;BME280;6587;42.728;23.288;2024-02-14T10:05:59;95546.84;;;4.88;70.88
13041;BME280;6587;42.728;23.288;2024-02-14T10:08:27;95549.56;;;4.76;70.38
13041;BME280;6587;42.728;23.288;2024-02-14T10:10:56;95545.22;;;4.56;70.57
13041;BME280;6587;42.728;23.288;2024-02-14T10:13:26;95542.38;;;4.61;70.49
13041;BME280;6587;42.728;23.288;2024-02-14T10:15:53;95548.97;;;4.55;71.29
13041;BME280;6587;42.728;23.288;2024-02-14T10:18:20;95544.22;;;4.60;70.51
13041;BME280;6587;42.728;23.288;2024-02-14T10:20:54;95552.66;;;4.66;70.20
13041;BME280;6587;42.728;23.288;2024-02-14T10:23:21;95546.28;;;4.67;70.13
13041;BME280;6587;42.728;23.288;2024-02-14T10:25:50;95547.31;;;4.78;69.22
13041;BME280;6587;42.728;23.288;2024-02-14T10:28:20;95546.00;;;4.56;69.20
13041;BME280;6587;42.728;23.288;2024-02-14T10:30:47;95543.41;;;4.72;69.41
13041;BME280;6587;42.728;23.288;2024-02-14T10:33:15;95541.53;;;4.57;68.91
13041;BME280;6587;42.728;23.288;2024-02-14T10:35:42;95540.94;;;4.63;68.79
13041;BME280;6587;42.728;23.288;2024-02-14T10:38:09;95541.94;;;4.59;68.61
13041;BME280;6587;42.728;23.288;2024-02-14T10:40:37;95545.38;;;4.75;68.56
13041;BME280;6587;42.728;23.288;2024-02-14T10:43:06;95548.09;;;4.78;68.28
13041;BME280;6587;42.728;23.288;2024-02-14T10:45:35;95541.13;;;4.86;68.92
13041;BME280;6587;42.728;23.288;2024-02-14T10:48:04;95547.09;;;4.99;68.53
13041;BME280;6587;42.728;23.288;2024-02-14T10:50:33;95544.59;;;4.74;68.09
13041;BME280;6587;42.728;23.288;2024-02-14T10:53:04;95548.25;;;4.70;68.27
13041;BME280;6587;42.728;23.288;2024-02-14T10:55:33;95543.25;;;4.65;68.37
13041;BME280;6587;42.728;23.288;2024-02-14T10:58:01;95542.13;;;4.66;69.17
13041;BME280;6587;42.728;23.288;2024-02-14T11:00:30;95542.84;;;4.78;68.05
13041;BME280;6587;42.728;23.288;2024-02-14T11:02:58;95540.44;;;4.73;67.76
13041;BME280;6587;42.728;23.288;2024-02-14T11:05:26;95539.94;;;4.68;67.59
13041;BME280;6587;42.728;23.288;2024-02-14T11:07:52;95538.81;;;4.69;68.03
13041;BME280;6587;42.728;23.288;2024-02-14T11:10:20;95539.66;;;4.73;68.03
13041;BME280;6587;42.728;23.288;2024-02-14T11:12:48;95541.97;;;4.74;68.47
13041;BME280;6587;42.728;23.288;2024-02-14T11:15:17;95547.31;;;4.62;68.01
13041;BME280;6587;42.728;23.288;2024-02-14T11:17:46;95540.34;;;4.70;69.00
13041;BME280;6587;42.728;23.288;2024-02-14T11:20:18;95535.25;;;4.77;68.66
13041;BME280;6587;42.728;23.288;2024-02-14T11:22:56;95528.94;;;4.66;68.27
13041;BME280;6587;42.728;23.288;2024-02-14T11:25:27;95532.38;;;4.82;68.83
13041;BME280;6587;42.728;23.288;2024-02-14T11:27:55;95539.06;;;4.79;69.02
13041;BME280;6587;42.728;23.288;2024-02-14T11:30:33;95538.16;;;4.88;67.92
13041;BME280;6587;42.728;23.288;2024-02-14T11:33:15;95543.63;;;4.95;68.71
13041;BME280;6587;42.728;23.288;2024-02-14T11:35:43;95537.38;;;4.87;68.76
13041;BME280;6587;42.728;23.288;2024-02-14T11:38:10;95542.59;;;4.99;68.77
13041;BME280;6587;42.728;23.288;2024-02-14T11:40:38;95530.19;;;5.15;68.04
13041;BME280;6587;42.728;23.288;2024-02-14T11:43:05;95529.00;;;5.13;66.98
13041;BME280;6587;42.728;23.288;2024-02-14T11:45:32;95540.22;;;4.94;68.50
13041;BME280;6587;42.728;23.288;2024-02-14T11:47:59;95540.22;;;4.94;68.14
13041;BME280;6587;42.728;23.288;2024-02-14T11:50:27;95550.84;;;4.98;67.14
13041;BME280;6587;42.728;23.288;2024-02-14T11:52:55;95539.72;;;4.89;67.99
13041;BME280;6587;42.728;23.288;2024-02-14T11:55:27;95544.97;;;4.89;67.69
13041;BME280;6587;42.728;23.288;2024-02-14T11:57:54;95547.19;;;5.02;68.25
13041;BME280;6587;42.728;23.288;2024-02-14T12:00:22;95542.59;;;4.99;67.65
13041;BME280;6587;42.728;23.288;2024-02-14T12:02:50;95540.56;;;5.08;67.07
13041;BME280;6587;42.728;23.288;2024-02-14T12:05:17;95542.19;;;5.13;66.94
13041;BME280;6587;42.728;23.288;2024-02-14T12:07:46;95534.44;;;5.04;66.85
13041;BME280;6587;42.728;23.288;2024-02-14T12:10:13;95534.44;;;5.04;66.38
13041;BME280;6587;42.728;23.288;2024-02-14T12:12:39;95537.00;;;5.16;66.76
13041;BME280;6587;42.728;23.288;2024-02-14T12:15:09;95533.25;;;5.17;65.21
13041;BME280;6587;42.728;23.288;2024-02-14T12:17:36;95533.91;;;5.14;65.98
13041;BME280;6587;42.728;23.288;2024-02-14T12:20:08;95537.69;;;5.13;66.43
13041;BME280;6587;42.728;23.288;2024-02-14T12:22:36;95534.50;;;5.23;65.75
13041;BME280;6587;42.728;23.288;2024-02-14T12:25:06;95523.28;;;5.26;65.53
13041;BME280;6587;42.728;23.288;2024-02-14T12:27:33;95529.75;;;5.29;66.28
13041;BME280;6587;42.728;23.288;2024-02-14T12:30:03;95522.19;;;5.27;65.79
13041;BME280;6587;42.728;23.288;2024-02-14T12:32:30;95524.97;;;5.34;66.01
13041;BME280;6587;42.728;23.288;2024-02-14T12:34:57;95525.59;;;5.28;66.26
13041;BME280;6587;42.728;23.288;2024-02-14T12:37:24;95520.81;;;5.33;66.05
13041;BME280;6587;42.728;23.288;2024-02-14T12:39:51;95523.78;;;5.32;66.29
13041;BME280;6587;42.728;23.288;2024-02-14T12:42:20;95521.16;;;5.32;66.29
13041;BME280;6587;42.728;23.288;2024-02-14T12:44:51;95523.88;;;5.35;66.14
13041;BME280;6587;42.728;23.288;2024-02-14T12:47:18;95528.91;;;5.40;66.65
13041;BME280;6587;42.728;23.288;2024-02-14T12:49:47;95529.38;;;5.61;65.37
13041;BME280;6587;42.728;23.288;2024-02-14T12:52:14;95522.31;;;5.65;65.08
13041;BME280;6587;42.728;23.288;2024-02-14T12:54:40;95524.53;;;5.63;65.17
13041;BME280;6587;42.728;23.288;2024-02-14T12:57:07;95528.81;;;5.52;64.56
13041;BME280;6587;42.728;23.288;2024-02-14T12:59:35;95529.13;;;5.66;64.15
13041;BME280;6587;42.728;23.288;2024-02-14T13:02:02;95517.28;;;5.60;64.35
13041;BME280;6587;42.728;23.288;2024-02-14T13:04:32;95529.56;;;5.53;65.11
13041;BME280;6587;42.728;23.288;2024-02-14T13:06:59;95531.53;;;5.56;64.78
13041;BME280;6587;42.728;23.288;2024-02-14T13:09:26;95532.00;;;5.61;64.45
13041;BME280;6587;42.728;23.288;2024-02-14T13:11:53;95536.88;;;5.59;64.11